sensor_id;sensor_type;location;lat;lon;timestamp;temperature;humidity
20650;DHT22;10484;48.736;9.332;2023-07-29T00:00:20;18.80;93.40
20650;DHT22;10484;48.736;9.332;2023-07-29T00:02:45;18.70;93.80
20650;DHT22;10484;48.736;9.332;2023-07-29T00:05:11;18.70;94.00
20650;DHT22;10484;48.736;9.332;2023-07-29T00:07:37;18.70;93.90
20650;DHT22;10484;48.736;9.332;2023-07-29T00:10:03;18.70;94.40
20650;DHT22;10484;48.736;9.332;2023-07-29T00:12:29;18.70;94.50
20650;DHT22;10484;48.736;9.332;2023-07-29T00:14:54;18.70;94.80
20650;DHT22;10484;48.736;9.332;2023-07-29T00:17:20;18.70;94.70
20650;DHT22;10484;48.736;9.332;2023-07-29T00:19:46;18.70;95.00
20650;DHT22;10484;48.736;9.332;2023-07-29T00:22:12;18.60;94.70
20650;DHT22;10484;48.736;9.332;2023-07-29T00:24:39;18.60;94.80
20650;DHT22;10484;48.736;9.332;2023-07-29T00:27:04;18.60;95.20
20650;DHT22;10484;48.736;9.332;2023-07-29T00:29:30;18.60;95.50
20650;DHT22;10484;48.736;9.332;2023-07-29T00:31:56;18.60;95.70
20650;DHT22;10484;48.736;9.332;2023-07-29T00:34:21;18.60;96.10
20650;DHT22;10484;48.736;9.332;2023-07-29T00:36:47;18.60;96.50
20650;DHT22;10484;48.736;9.332;2023-07-29T00:39:13;18.60;96.80
20650;DHT22;10484;48.736;9.332;2023-07-29T00:41:38;18.60;97.60
20650;DHT22;10484;48.736;9.332;2023-07-29T00:44:04;18.50;99.20
20650;DHT22;10484;48.736;9.332;2023-07-29T00:46:32;18.50;99.80
20650;DHT22;10484;48.736;9.332;2023-07-29T00:48:59;18.50;99.90
20650;DHT22;10484;48.736;9.332;2023-07-29T00:51:25;18.50;99.90
20650;DHT22;10484;48.736;9.332;2023-07-29T00:53:51;18.50;99.90
20650;DHT22;10484;48.736;9.332;2023-07-29T00:56:16;18.50;99.90
20650;DHT22;10484;48.736;9.332;2023-07-29T00:58:42;18.50;99.90
20650;DHT22;10484;48.736;9.332;2023-07-29T01:01:08;18.50;99.90
20650;DHT22;10484;48.736;9.332;2023-07-29T01:03:35;18.50;99.90
20650;DHT22;10484;48.736;9.332;2023-07-29T01:09:03;18.50;99.90
20650;DHT22;10484;48.736;9.332;2023-07-29T01:11:33;18.40;99.90
20650;DHT22;10484;48.736;9.332;2023-07-29T01:14:10;18.50;99.90
20650;DHT22;10484;48.736;9.332;2023-07-29T01:16:50;18.40;99.90
20650;DHT22;10484;48.736;9.332;2023-07-29T01:21:57;18.40;99.90
20650;DHT22;10484;48.736;9.332;2023-07-29T01:24:23;18.40;99.90
20650;DHT22;10484;48.736;9.332;2023-07-29T01:26:49;18.40;99.90
20650;DHT22;10484;48.736;9.332;2023-07-29T01:29:14;18.40;99.90
20650;DHT22;10484;48.736;9.332;2023-07-29T01:31:44;18.40;99.90
20650;DHT22;10484;48.736;9.332;2023-07-29T01:34:17;18.30;99.90
20650;DHT22;10484;48.736;9.332;2023-07-29T01:36:45;18.40;99.90
20650;DHT22;10484;48.736;9.332;2023-07-29T01:39:12;18.30;99.90
20650;DHT22;10484;48.736;9.332;2023-07-29T01:41:39;18.30;99.90
20650;DHT22;10484;48.736;9.332;2023-07-29T01:44:06;18.30;99.90
20650;DHT22;10484;48.736;9.332;2023-07-29T01:46:33;18.30;99.90
20650;DHT22;10484;48.736;9.332;2023-07-29T01:48:59;18.30;99.90
20650;DHT22;10484;48.736;9.332;2023-07-29T01:51:25;18.30;99.90
20650;DHT22;10484;48.736;9.332;2023-07-29T01:53:50;18.30;99.90
20650;DHT22;10484;48.736;9.332;2023-07-29T01:56:16;18.30;99.90
20650;DHT22;10484;48.736;9.332;2023-07-29T01:58:41;18.30;99.90
20650;DHT22;10484;48.736;9.332;2023-07-29T02:01:07;18.30;99.90
20650;DHT22;10484;48.736;9.332;2023-07-29T02:03:33;18.30;99.90
20650;DHT22;10484;48.736;9.332;2023-07-29T02:05:58;18.30;99.90
20650;DHT22;10484;48.736;9.332;2023-07-29T02:08:24;18.30;99.90
20650;DHT22;10484;48.736;9.332;2023-07-29T02:10:49;18.20;99.90
20650;DHT22;10484;48.736;9.332;2023-07-29T02:13:15;18.20;99.90
20650;DHT22;10484;48.736;9.332;2023-07-29T02:15:40;18.20;99.90
20650;DHT22;10484;48.736;9.332;2023-07-29T02:18:06;18.20;99.90
20650;DHT22;10484;48.736;9.332;2023-07-29T02:20:32;18.20;99.90
20650;DHT22;10484;48.736;9.332;2023-07-29T02:22:58;18.20;99.90
20650;DHT22;10484;48.736;9.332;2023-07-29T02:25:23;18.20;99.90
20650;DHT22;10484;48.736;9.332;2023-07-29T02:27:49;18.20;99.90
20650;DHT22;10484;48.736;9.332;2023-07-29T02:30:14;18.20;99.90
20650;DHT22;10484;48.736;9.332;2023-07-29T02:32:40;18.20;99.90
20650;DHT22;10484;48.736;9.332;2023-07-29T02:35:06;18.20;99.90
20650;DHT22;10484;48.736;9.332;2023-07-29T02:37:31;18.20;99.90
20650;DHT22;10484;48.736;9.332;2023-07-29T02:39:57;18.20;99.90
20650;DHT22;10484;48.736;9.332;2023-07-29T02:42:22;18.10;99.90
20650;DHT22;10484;48.736;9.332;2023-07-29T02:44:48;18.20;99.90
20650;DHT22;10484;48.736;9.332;2023-07-29T02:47:14;18.10;99.90
20650;DHT22;10484;48.736;9.332;2023-07-29T02:49:39;18.10;99.90
20650;DHT22;10484;48.736;9.332;2023-07-29T02:52:05;18.10;99.90
20650;DHT22;10484;48.736;9.332;2023-07-29T02:54:30;18.10;99.90
20650;DHT22;10484;48.736;9.332;2023-07-29T02:56:56;18.10;99.90
20650;DHT22;10484;48.736;9.332;2023-07-29T02:59:22;18.10;99.90
20650;DHT22;10484;48.736;9.332;2023-07-29T03:01:47;18.10;99.90
20650;DHT22;10484;48.736;9.332;2023-07-29T03:04:13;18.10;99.90
20650;DHT22;10484;48.736;9.332;2023-07-29T03:06:39;18.00;99.90
20650;DHT22;10484;48.736;9.332;2023-07-29T03:09:04;18.00;99.90
20650;DHT22;10484;48.736;9.332;2023-07-29T03:11:30;18.10;99.90
20650;DHT22;10484;48.736;9.332;2023-07-29T03:13:56;18.10;99.90
20650;DHT22;10484;48.736;9.332;2023-07-29T03:16:22;18.10;99.90
20650;DHT22;10484;48.736;9.332;2023-07-29T03:18:48;18.00;99.90
20650;DHT22;10484;48.736;9.332;2023-07-29T03:21:14;18.00;99.90
20650;DHT22;10484;48.736;9.332;2023-07-29T03:23:40;18.00;99.90
20650;DHT22;10484;48.736;9.332;2023-07-29T03:26:05;18.00;99.90
20650;DHT22;10484;48.736;9.332;2023-07-29T03:28:39;18.00;99.90
20650;DHT22;10484;48.736;9.332;2023-07-29T03:31:05;18.00;99.90
20650;DHT22;10484;48.736;9.332;2023-07-29T03:33:31;18.00;99.90
20650;DHT22;10484;48.736;9.332;2023-07-29T03:35:56;17.90;99.90
20650;DHT22;10484;48.736;9.332;2023-07-29T03:38:22;17.90;99.90
20650;DHT22;10484;48.736;9.332;2023-07-29T03:40:48;17.90;99.90
20650;DHT22;10484;48.736;9.332;2023-07-29T03:43:14;17.90;99.90
20650;DHT22;10484;48.736;9.332;2023-07-29T03:45:40;17.90;99.90
20650;DHT22;10484;48.736;9.332;2023-07-29T03:48:06;17.90;99.90
20650;DHT22;10484;48.736;9.332;2023-07-29T03:50:33;17.90;99.90
20650;DHT22;10484;48.736;9.332;2023-07-29T03:53:00;17.90;99.90
20650;DHT22;10484;48.736;9.332;2023-07-29T03:55:26;17.90;99.90
20650;DHT22;10484;48.736;9.332;2023-07-29T03:57:51;17.90;99.90
20650;DHT22;10484;48.736;9.332;2023-07-29T04:00:17;17.90;99.90
20650;DHT22;10484;48.736;9.332;2023-07-29T04:02:42;17.90;99.90
20650;DHT22;10484;48.736;9.332;2023-07-29T04:05:08;17.90;99.90
20650;DHT22;10484;48.736;9.332;2023-07-29T04:07:35;17.80;99.90
20650;DHT22;10484;48.736;9.332;2023-07-29T04:10:00;17.80;99.90
20650;DHT22;10484;48.736;9.332;2023-07-29T04:12:26;17.80;99.90
20650;DHT22;10484;48.736;9.332;2023-07-29T04:14:52;17.80;99.90
20650;DHT22;10484;48.736;9.332;2023-07-29T04:17:18;17.80;99.90
20650;DHT22;10484;48.736;9.332;2023-07-29T04:19:43;17.90;99.90
20650;DHT22;10484;48.736;9.332;2023-07-29T04:22:09;17.90;99.90
20650;DHT22;10484;48.736;9.332;2023-07-29T04:24:34;17.80;99.90
20650;DHT22;10484;48.736;9.332;2023-07-29T04:27:00;17.90;99.90
20650;DHT22;10484;48.736;9.332;2023-07-29T04:29:26;17.90;99.90
20650;DHT22;10484;48.736;9.332;2023-07-29T04:31:52;17.90;99.90
20650;DHT22;10484;48.736;9.332;2023-07-29T04:34:18;17.80;99.90
20650;DHT22;10484;48.736;9.332;2023-07-29T04:36:44;17.80;99.90
20650;DHT22;10484;48.736;9.332;2023-07-29T04:39:10;17.90;99.90
20650;DHT22;10484;48.736;9.332;2023-07-29T04:41:36;17.80;99.90
20650;DHT22;10484;48.736;9.332;2023-07-29T04:44:01;17.90;99.90
20650;DHT22;10484;48.736;9.332;2023-07-29T04:46:27;17.90;99.90
20650;DHT22;10484;48.736;9.332;2023-07-29T04:48:53;17.80;99.90
20650;DHT22;10484;48.736;9.332;2023-07-29T04:51:18;17.80;99.90
20650;DHT22;10484;48.736;9.332;2023-07-29T04:53:44;17.80;99.90
20650;DHT22;10484;48.736;9.332;2023-07-29T04:56:09;17.80;99.90
20650;DHT22;10484;48.736;9.332;2023-07-29T04:58:35;17.80;99.90
20650;DHT22;10484;48.736;9.332;2023-07-29T05:01:02;17.80;99.90
20650;DHT22;10484;48.736;9.332;2023-07-29T05:03:28;17.80;99.90
20650;DHT22;10484;48.736;9.332;2023-07-29T05:05:54;17.80;99.90
20650;DHT22;10484;48.736;9.332;2023-07-29T05:08:21;17.80;99.90
20650;DHT22;10484;48.736;9.332;2023-07-29T05:10:50;17.80;99.90
20650;DHT22;10484;48.736;9.332;2023-07-29T05:13:17;17.80;99.90
20650;DHT22;10484;48.736;9.332;2023-07-29T05:15:43;17.80;99.90
20650;DHT22;10484;48.736;9.332;2023-07-29T05:18:08;17.80;99.90
20650;DHT22;10484;48.736;9.332;2023-07-29T05:20:34;17.80;99.90
20650;DHT22;10484;48.736;9.332;2023-07-29T05:22:59;17.80;99.90
20650;DHT22;10484;48.736;9.332;2023-07-29T05:25:26;17.80;99.90
20650;DHT22;10484;48.736;9.332;2023-07-29T05:27:52;17.80;99.90
20650;DHT22;10484;48.736;9.332;2023-07-29T05:30:17;17.80;99.90
20650;DHT22;10484;48.736;9.332;2023-07-29T05:32:43;17.80;99.90
20650;DHT22;10484;48.736;9.332;2023-07-29T05:35:10;17.80;99.90
20650;DHT22;10484;48.736;9.332;2023-07-29T05:37:38;17.80;99.90
20650;DHT22;10484;48.736;9.332;2023-07-29T05:40:04;17.80;99.90
20650;DHT22;10484;48.736;9.332;2023-07-29T05:42:31;17.80;99.90
20650;DHT22;10484;48.736;9.332;2023-07-29T05:44:56;17.80;99.90
20650;DHT22;10484;48.736;9.332;2023-07-29T05:47:22;17.80;99.90
20650;DHT22;10484;48.736;9.332;2023-07-29T05:49:47;17.80;99.90
20650;DHT22;10484;48.736;9.332;2023-07-29T05:52:13;17.80;99.90
20650;DHT22;10484;48.736;9.332;2023-07-29T05:54:38;17.80;99.90
20650;DHT22;10484;48.736;9.332;2023-07-29T05:57:04;17.80;99.90
20650;DHT22;10484;48.736;9.332;2023-07-29T05:59:30;17.80;99.90
20650;DHT22;10484;48.736;9.332;2023-07-29T06:01:56;17.90;99.90
20650;DHT22;10484;48.736;9.332;2023-07-29T06:04:21;17.90;99.90
20650;DHT22;10484;48.736;9.332;2023-07-29T06:06:47;17.90;99.90
20650;DHT22;10484;48.736;9.332;2023-07-29T06:09:13;17.90;99.90
20650;DHT22;10484;48.736;9.332;2023-07-29T06:11:38;17.90;99.90
20650;DHT22;10484;48.736;9.332;2023-07-29T06:14:04;17.90;99.90
20650;DHT22;10484;48.736;9.332;2023-07-29T06:16:29;17.90;99.90
20650;DHT22;10484;48.736;9.332;2023-07-29T06:18:55;18.00;99.90
20650;DHT22;10484;48.736;9.332;2023-07-29T06:21:20;18.00;99.90
20650;DHT22;10484;48.736;9.332;2023-07-29T06:23:47;18.00;99.90
20650;DHT22;10484;48.736;9.332;2023-07-29T06:26:12;18.00;99.90
20650;DHT22;10484;48.736;9.332;2023-07-29T06:28:38;18.00;99.90
20650;DHT22;10484;48.736;9.332;2023-07-29T06:31:03;18.00;99.90
20650;DHT22;10484;48.736;9.332;2023-07-29T06:33:29;18.10;99.90
20650;DHT22;10484;48.736;9.332;2023-07-29T06:35:55;18.00;99.90
20650;DHT22;10484;48.736;9.332;2023-07-29T06:38:20;18.10;99.90
20650;DHT22;10484;48.736;9.332;2023-07-29T06:40:50;18.10;99.90
20650;DHT22;10484;48.736;9.332;2023-07-29T06:43:16;18.10;99.90
20650;DHT22;10484;48.736;9.332;2023-07-29T06:45:42;18.20;99.90
20650;DHT22;10484;48.736;9.332;2023-07-29T06:48:08;18.20;99.90
20650;DHT22;10484;48.736;9.332;2023-07-29T06:50:33;18.20;99.90
20650;DHT22;10484;48.736;9.332;2023-07-29T06:52:59;18.20;99.90
20650;DHT22;10484;48.736;9.332;2023-07-29T06:55:24;18.30;99.90
20650;DHT22;10484;48.736;9.332;2023-07-29T06:57:50;18.30;99.90
20650;DHT22;10484;48.736;9.332;2023-07-29T07:00:16;18.30;99.90
20650;DHT22;10484;48.736;9.332;2023-07-29T07:02:41;18.30;99.90
20650;DHT22;10484;48.736;9.332;2023-07-29T07:05:07;18.30;99.90
20650;DHT22;10484;48.736;9.332;2023-07-29T07:07:33;18.30;99.90
20650;DHT22;10484;48.736;9.332;2023-07-29T07:09:58;18.30;99.90
20650;DHT22;10484;48.736;9.332;2023-07-29T07:12:24;18.30;99.90
20650;DHT22;10484;48.736;9.332;2023-07-29T07:14:50;18.30;99.90
20650;DHT22;10484;48.736;9.332;2023-07-29T07:17:15;18.30;99.90
20650;DHT22;10484;48.736;9.332;2023-07-29T07:19:41;18.30;99.90
20650;DHT22;10484;48.736;9.332;2023-07-29T07:22:07;18.30;99.90
20650;DHT22;10484;48.736;9.332;2023-07-29T07:24:32;18.30;99.90
20650;DHT22;10484;48.736;9.332;2023-07-29T07:26:58;18.30;99.90
20650;DHT22;10484;48.736;9.332;2023-07-29T07:29:23;18.30;99.90
20650;DHT22;10484;48.736;9.332;2023-07-29T07:31:53;18.30;99.90
20650;DHT22;10484;48.736;9.332;2023-07-29T07:34:20;18.30;99.90
20650;DHT22;10484;48.736;9.332;2023-07-29T07:36:46;18.30;99.90
20650;DHT22;10484;48.736;9.332;2023-07-29T07:39:12;18.40;99.90
20650;DHT22;10484;48.736;9.332;2023-07-29T07:41:37;18.40;99.90
20650;DHT22;10484;48.736;9.332;2023-07-29T07:44:03;18.40;99.90
20650;DHT22;10484;48.736;9.332;2023-07-29T07:46:29;18.40;99.90
20650;DHT22;10484;48.736;9.332;2023-07-29T07:48:55;18.40;99.90
20650;DHT22;10484;48.736;9.332;2023-07-29T07:51:20;18.40;99.90
20650;DHT22;10484;48.736;9.332;2023-07-29T07:53:46;18.50;99.90
20650;DHT22;10484;48.736;9.332;2023-07-29T07:56:12;18.50;99.90
20650;DHT22;10484;48.736;9.332;2023-07-29T07:58:38;18.50;99.90
20650;DHT22;10484;48.736;9.332;2023-07-29T08:01:05;18.50;99.90
20650;DHT22;10484;48.736;9.332;2023-07-29T08:03:31;18.50;99.90
20650;DHT22;10484;48.736;9.332;2023-07-29T08:05:57;18.50;99.90
20650;DHT22;10484;48.736;9.332;2023-07-29T08:08:23;18.50;99.90
20650;DHT22;10484;48.736;9.332;2023-07-29T08:10:49;18.50;99.90
20650;DHT22;10484;48.736;9.332;2023-07-29T08:13:14;18.60;99.90
20650;DHT22;10484;48.736;9.332;2023-07-29T08:15:40;18.50;99.90
20650;DHT22;10484;48.736;9.332;2023-07-29T08:18:06;18.60;99.90
20650;DHT22;10484;48.736;9.332;2023-07-29T08:20:32;18.60;99.90
20650;DHT22;10484;48.736;9.332;2023-07-29T08:22:58;18.60;99.90
20650;DHT22;10484;48.736;9.332;2023-07-29T08:25:23;18.60;99.90
20650;DHT22;10484;48.736;9.332;2023-07-29T08:27:49;18.60;99.90
20650;DHT22;10484;48.736;9.332;2023-07-29T08:30:15;18.70;99.90
20650;DHT22;10484;48.736;9.332;2023-07-29T08:32:41;18.70;99.90
20650;DHT22;10484;48.736;9.332;2023-07-29T08:35:07;18.80;99.90
20650;DHT22;10484;48.736;9.332;2023-07-29T08:37:33;18.80;99.90
20650;DHT22;10484;48.736;9.332;2023-07-29T08:39:59;18.80;99.90
20650;DHT22;10484;48.736;9.332;2023-07-29T08:42:27;18.90;99.90
20650;DHT22;10484;48.736;9.332;2023-07-29T08:44:54;19.00;99.90
20650;DHT22;10484;48.736;9.332;2023-07-29T08:47:21;19.00;99.90
20650;DHT22;10484;48.736;9.332;2023-07-29T08:49:47;19.10;99.90
20650;DHT22;10484;48.736;9.332;2023-07-29T08:52:14;19.10;99.90
20650;DHT22;10484;48.736;9.332;2023-07-29T08:54:40;19.20;99.90
20650;DHT22;10484;48.736;9.332;2023-07-29T08:57:06;19.20;99.90
20650;DHT22;10484;48.736;9.332;2023-07-29T08:59:33;19.30;99.90
20650;DHT22;10484;48.736;9.332;2023-07-29T09:01:58;19.40;99.90
20650;DHT22;10484;48.736;9.332;2023-07-29T09:04:24;19.40;99.90
20650;DHT22;10484;48.736;9.332;2023-07-29T09:06:51;19.50;99.90
20650;DHT22;10484;48.736;9.332;2023-07-29T09:09:17;19.60;99.90
20650;DHT22;10484;48.736;9.332;2023-07-29T09:11:43;19.60;99.90
20650;DHT22;10484;48.736;9.332;2023-07-29T09:14:10;19.70;99.90
20650;DHT22;10484;48.736;9.332;2023-07-29T09:16:35;19.80;99.90
20650;DHT22;10484;48.736;9.332;2023-07-29T09:19:02;19.90;99.90
20650;DHT22;10484;48.736;9.332;2023-07-29T09:21:29;19.90;99.90
20650;DHT22;10484;48.736;9.332;2023-07-29T09:23:55;20.00;99.90
20650;DHT22;10484;48.736;9.332;2023-07-29T09:26:28;20.10;99.90
20650;DHT22;10484;48.736;9.332;2023-07-29T09:28:55;20.10;99.90
20650;DHT22;10484;48.736;9.332;2023-07-29T09:31:23;20.20;99.90
20650;DHT22;10484;48.736;9.332;2023-07-29T09:33:50;20.20;99.90
20650;DHT22;10484;48.736;9.332;2023-07-29T09:36:15;20.30;99.90
20650;DHT22;10484;48.736;9.332;2023-07-29T09:38:41;20.40;99.90
20650;DHT22;10484;48.736;9.332;2023-07-29T09:41:09;20.40;99.90
20650;DHT22;10484;48.736;9.332;2023-07-29T09:43:36;20.50;99.90
20650;DHT22;10484;48.736;9.332;2023-07-29T09:46:04;20.60;99.90
20650;DHT22;10484;48.736;9.332;2023-07-29T09:48:34;20.60;99.90
20650;DHT22;10484;48.736;9.332;2023-07-29T09:51:09;20.70;99.90
20650;DHT22;10484;48.736;9.332;2023-07-29T09:53:40;20.80;99.90
20650;DHT22;10484;48.736;9.332;2023-07-29T09:56:06;20.80;99.90
20650;DHT22;10484;48.736;9.332;2023-07-29T09:58:33;20.90;99.90
20650;DHT22;10484;48.736;9.332;2023-07-29T10:00:59;21.00;99.90
20650;DHT22;10484;48.736;9.332;2023-07-29T10:03:25;21.10;99.90
20650;DHT22;10484;48.736;9.332;2023-07-29T10:05:51;21.10;99.90
20650;DHT22;10484;48.736;9.332;2023-07-29T10:08:18;21.20;99.90
20650;DHT22;10484;48.736;9.332;2023-07-29T10:10:44;21.20;99.90
20650;DHT22;10484;48.736;9.332;2023-07-29T10:13:10;21.30;99.90
20650;DHT22;10484;48.736;9.332;2023-07-29T10:15:37;21.40;99.90
20650;DHT22;10484;48.736;9.332;2023-07-29T10:18:03;21.50;99.90
20650;DHT22;10484;48.736;9.332;2023-07-29T10:20:30;21.60;99.20
20650;DHT22;10484;48.736;9.332;2023-07-29T10:22:59;21.60;98.80
20650;DHT22;10484;48.736;9.332;2023-07-29T10:25:33;21.70;99.90
20650;DHT22;10484;48.736;9.332;2023-07-29T10:28:07;21.90;99.90
20650;DHT22;10484;48.736;9.332;2023-07-29T10:30:34;21.90;99.90
20650;DHT22;10484;48.736;9.332;2023-07-29T10:33:02;22.00;96.10
20650;DHT22;10484;48.736;9.332;2023-07-29T10:35:28;22.10;95.10
20650;DHT22;10484;48.736;9.332;2023-07-29T10:37:55;22.20;93.70
20650;DHT22;10484;48.736;9.332;2023-07-29T10:40:21;22.20;92.40
20650;DHT22;10484;48.736;9.332;2023-07-29T10:43:09;22.30;86.20
20650;DHT22;10484;48.736;9.332;2023-07-29T10:45:39;22.40;87.90
20650;DHT22;10484;48.736;9.332;2023-07-29T10:51:22;22.70;80.30
20650;DHT22;10484;48.736;9.332;2023-07-29T10:54:09;22.80;80.90
20650;DHT22;10484;48.736;9.332;2023-07-29T10:56:36;22.90;83.60
20650;DHT22;10484;48.736;9.332;2023-07-29T11:01:59;23.00;49.00
20650;DHT22;10484;48.736;9.332;2023-07-29T11:04:29;23.00;47.50
20650;DHT22;10484;48.736;9.332;2023-07-29T11:15:03;23.30;40.90
20650;DHT22;10484;48.736;9.332;2023-07-29T11:17:33;23.30;45.20
20650;DHT22;10484;48.736;9.332;2023-07-29T11:20:02;23.40;47.10
20650;DHT22;10484;48.736;9.332;2023-07-29T11:22:29;23.40;47.00
20650;DHT22;10484;48.736;9.332;2023-07-29T11:24:55;23.40;47.30
20650;DHT22;10484;48.736;9.332;2023-07-29T11:27:21;23.40;47.00
20650;DHT22;10484;48.736;9.332;2023-07-29T11:29:47;23.40;47.20
20650;DHT22;10484;48.736;9.332;2023-07-29T11:32:13;23.40;47.00
20650;DHT22;10484;48.736;9.332;2023-07-29T11:34:39;23.50;46.70
20650;DHT22;10484;48.736;9.332;2023-07-29T11:37:10;23.50;43.30
20650;DHT22;10484;48.736;9.332;2023-07-29T11:39:45;23.50;37.30
20650;DHT22;10484;48.736;9.332;2023-07-29T11:42:12;23.50;35.20
20650;DHT22;10484;48.736;9.332;2023-07-29T11:44:38;23.50;33.20
20650;DHT22;10484;48.736;9.332;2023-07-29T11:47:07;23.50;33.30
20650;DHT22;10484;48.736;9.332;2023-07-29T11:49:34;23.60;33.10
20650;DHT22;10484;48.736;9.332;2023-07-29T11:52:00;23.60;33.60
20650;DHT22;10484;48.736;9.332;2023-07-29T11:54:26;23.60;33.70
20650;DHT22;10484;48.736;9.332;2023-07-29T11:56:52;23.70;30.60
20650;DHT22;10484;48.736;9.332;2023-07-29T11:59:17;23.70;27.50
20650;DHT22;10484;48.736;9.332;2023-07-29T12:01:43;23.80;26.00
20650;DHT22;10484;48.736;9.332;2023-07-29T12:04:09;23.90;24.00
20650;DHT22;10484;48.736;9.332;2023-07-29T12:06:35;24.00;21.60
20650;DHT22;10484;48.736;9.332;2023-07-29T12:09:01;24.10;19.20
20650;DHT22;10484;48.736;9.332;2023-07-29T12:11:27;24.10;17.90
20650;DHT22;10484;48.736;9.332;2023-07-29T12:13:53;24.20;17.80
20650;DHT22;10484;48.736;9.332;2023-07-29T12:16:19;24.30;16.30
20650;DHT22;10484;48.736;9.332;2023-07-29T12:18:45;24.50;14.20
20650;DHT22;10484;48.736;9.332;2023-07-29T12:21:11;24.60;14.00
20650;DHT22;10484;48.736;9.332;2023-07-29T12:23:39;24.60;12.90
20650;DHT22;10484;48.736;9.332;2023-07-29T12:26:04;24.70;11.30
20650;DHT22;10484;48.736;9.332;2023-07-29T12:28:30;24.80;7.80
20650;DHT22;10484;48.736;9.332;2023-07-29T12:30:56;24.90;2.00
20650;DHT22;10484;48.736;9.332;2023-07-29T12:33:37;25.00;1.00
20650;DHT22;10484;48.736;9.332;2023-07-29T12:36:05;25.10;1.00
20650;DHT22;10484;48.736;9.332;2023-07-29T12:38:30;25.10;1.00
20650;DHT22;10484;48.736;9.332;2023-07-29T12:40:56;25.20;1.00
20650;DHT22;10484;48.736;9.332;2023-07-29T12:43:22;25.20;1.00
20650;DHT22;10484;48.736;9.332;2023-07-29T12:45:51;25.30;1.00
20650;DHT22;10484;48.736;9.332;2023-07-29T12:48:16;25.30;1.00
20650;DHT22;10484;48.736;9.332;2023-07-29T12:50:42;25.40;1.00
20650;DHT22;10484;48.736;9.332;2023-07-29T12:53:08;25.40;1.00
20650;DHT22;10484;48.736;9.332;2023-07-29T12:55:37;25.50;1.00
20650;DHT22;10484;48.736;9.332;2023-07-29T12:58:04;25.50;1.00
20650;DHT22;10484;48.736;9.332;2023-07-29T13:00:30;25.50;1.00
20650;DHT22;10484;48.736;9.332;2023-07-29T13:02:56;25.60;1.00
20650;DHT22;10484;48.736;9.332;2023-07-29T13:05:22;25.60;1.00
20650;DHT22;10484;48.736;9.332;2023-07-29T13:07:47;25.70;1.00
20650;DHT22;10484;48.736;9.332;2023-07-29T13:10:13;25.70;1.00
20650;DHT22;10484;48.736;9.332;2023-07-29T13:12:39;25.80;1.00
20650;DHT22;10484;48.736;9.332;2023-07-29T13:15:05;25.80;1.00
20650;DHT22;10484;48.736;9.332;2023-07-29T13:17:32;25.80;1.00
20650;DHT22;10484;48.736;9.332;2023-07-29T13:19:57;25.80;1.00
20650;DHT22;10484;48.736;9.332;2023-07-29T13:22:23;25.90;1.00
20650;DHT22;10484;48.736;9.332;2023-07-29T13:24:48;26.00;1.00
20650;DHT22;10484;48.736;9.332;2023-07-29T13:27:14;26.00;1.00
20650;DHT22;10484;48.736;9.332;2023-07-29T13:29:40;26.00;1.00
20650;DHT22;10484;48.736;9.332;2023-07-29T13:32:06;26.00;1.00
20650;DHT22;10484;48.736;9.332;2023-07-29T13:34:32;26.00;1.00
20650;DHT22;10484;48.736;9.332;2023-07-29T13:36:57;26.10;1.00
20650;DHT22;10484;48.736;9.332;2023-07-29T13:39:23;26.10;1.00
20650;DHT22;10484;48.736;9.332;2023-07-29T13:41:48;26.10;1.00
20650;DHT22;10484;48.736;9.332;2023-07-29T13:44:14;26.10;1.00
20650;DHT22;10484;48.736;9.332;2023-07-29T13:46:40;26.10;1.00
20650;DHT22;10484;48.736;9.332;2023-07-29T13:49:05;26.10;1.00
20650;DHT22;10484;48.736;9.332;2023-07-29T13:51:31;26.10;1.00
20650;DHT22;10484;48.736;9.332;2023-07-29T13:53:56;26.10;1.00
20650;DHT22;10484;48.736;9.332;2023-07-29T13:56:22;26.10;1.00
20650;DHT22;10484;48.736;9.332;2023-07-29T13:58:48;26.10;1.00
20650;DHT22;10484;48.736;9.332;2023-07-29T14:01:13;26.20;1.00
20650;DHT22;10484;48.736;9.332;2023-07-29T14:03:39;26.20;1.00
20650;DHT22;10484;48.736;9.332;2023-07-29T14:06:04;26.20;1.00
20650;DHT22;10484;48.736;9.332;2023-07-29T14:08:30;26.20;1.00
20650;DHT22;10484;48.736;9.332;2023-07-29T14:10:56;26.10;1.00
20650;DHT22;10484;48.736;9.332;2023-07-29T14:13:21;26.20;1.00
20650;DHT22;10484;48.736;9.332;2023-07-29T14:15:47;26.20;1.00
20650;DHT22;10484;48.736;9.332;2023-07-29T14:18:12;26.20;1.00
20650;DHT22;10484;48.736;9.332;2023-07-29T14:20:38;26.20;1.00
20650;DHT22;10484;48.736;9.332;2023-07-29T14:23:04;26.20;1.00
20650;DHT22;10484;48.736;9.332;2023-07-29T14:25:29;26.10;1.00
20650;DHT22;10484;48.736;9.332;2023-07-29T14:27:55;26.20;1.00
20650;DHT22;10484;48.736;9.332;2023-07-29T14:30:21;26.20;1.00
20650;DHT22;10484;48.736;9.332;2023-07-29T14:32:46;26.20;1.00
20650;DHT22;10484;48.736;9.332;2023-07-29T14:35:12;26.20;1.00
20650;DHT22;10484;48.736;9.332;2023-07-29T14:37:38;26.20;1.00
20650;DHT22;10484;48.736;9.332;2023-07-29T14:40:04;26.20;1.00
20650;DHT22;10484;48.736;9.332;2023-07-29T14:42:30;26.20;1.00
20650;DHT22;10484;48.736;9.332;2023-07-29T14:44:56;26.20;1.00
20650;DHT22;10484;48.736;9.332;2023-07-29T14:47:21;26.20;1.00
20650;DHT22;10484;48.736;9.332;2023-07-29T14:49:47;26.20;1.00
20650;DHT22;10484;48.736;9.332;2023-07-29T14:52:13;26.20;1.00
20650;DHT22;10484;48.736;9.332;2023-07-29T14:54:38;26.20;1.00
20650;DHT22;10484;48.736;9.332;2023-07-29T14:57:05;26.20;1.00
20650;DHT22;10484;48.736;9.332;2023-07-29T14:59:31;26.20;1.00
20650;DHT22;10484;48.736;9.332;2023-07-29T15:01:57;26.20;1.00
20650;DHT22;10484;48.736;9.332;2023-07-29T15:04:22;26.10;1.00
20650;DHT22;10484;48.736;9.332;2023-07-29T15:06:48;26.10;1.00
20650;DHT22;10484;48.736;9.332;2023-07-29T15:09:13;26.10;1.00
20650;DHT22;10484;48.736;9.332;2023-07-29T15:11:39;26.10;1.00
20650;DHT22;10484;48.736;9.332;2023-07-29T15:14:06;26.00;1.00
20650;DHT22;10484;48.736;9.332;2023-07-29T15:16:31;26.00;1.00
20650;DHT22;10484;48.736;9.332;2023-07-29T15:18:59;26.00;1.00
20650;DHT22;10484;48.736;9.332;2023-07-29T15:21:25;26.00;1.00
20650;DHT22;10484;48.736;9.332;2023-07-29T15:23:50;26.00;1.00
20650;DHT22;10484;48.736;9.332;2023-07-29T15:26:16;26.00;1.00
20650;DHT22;10484;48.736;9.332;2023-07-29T15:28:41;26.00;1.00
20650;DHT22;10484;48.736;9.332;2023-07-29T15:31:07;26.00;1.00
20650;DHT22;10484;48.736;9.332;2023-07-29T15:33:33;26.00;1.00
20650;DHT22;10484;48.736;9.332;2023-07-29T15:36:00;26.00;1.00
20650;DHT22;10484;48.736;9.332;2023-07-29T15:38:25;26.00;1.00
20650;DHT22;10484;48.736;9.332;2023-07-29T15:40:51;26.00;1.00
20650;DHT22;10484;48.736;9.332;2023-07-29T15:43:17;26.00;1.00
20650;DHT22;10484;48.736;9.332;2023-07-29T15:45:43;26.00;1.00
20650;DHT22;10484;48.736;9.332;2023-07-29T15:48:10;26.00;1.00